メインページ
METAR-TAF:

METAR-TAF

空港 :

グアテマラシティ, グアテマラ

ラ・アウロラ国際空港

緯度: 14-35N, 経度: 090-31W, 海抜: 1489m

現時点の気象観測

当レポートは20分前の02:00(UTC)に作成
の風 8kt
気温 19°C
湿度 94%
気圧 1025 hPa
視程: 5000m
高度1800ftの雲は散在している
高度2400ftの雲は散在している, 積乱雲.
高度8000ftの千切れ雲あり
激しい雷雨, 雨

METAR: MGGT 010200Z 18008KT 5000 TSRA SCT018 SCT024CB BKN080 19/18 Q1025 A3027 CB/TS/LTNG NE/E/SE/SSE/S/NW

時間: 20:20 (02:20 UTC)

予報

当レポートは3時間20分前の23:00(UTC)に作成
予報は01日の 00時(UTC)から 01日の 24時(UTC)まで有効
の風 6kt
視程: 6000m
高度1600ftの千切れ雲あり
確率 30% :
01日の 00時(UTC)から 01日の 05時(UTC)まで一時的に
南/南西の風 12kt
高度2500ftの雲はほとんどない, 積乱雲.
近辺で激しい雷雨, 雨
確率 40% :
01日の 08時(UTC)から 01日の 18時(UTC)まで一時的に
変向風 3kt
視程: 5000m
高度1400ftの千切れ雲あり
靄, 雨, 霧雨
01日の 15時(UTC)から 01日の 17時(UTC)まで徐々に
の風 6kt
視程: 8000m
高度1800ftの雲は散在している
高度9000ftの千切れ雲あり
01日の 18時(UTC)から 01日の 24時(UTC)まで一時的に
高度2000ftの雲は散在している, 塔状積雲.
高度2500ftの雲はほとんどない, 積乱雲.
近辺で激しい雷雨, 雨

TAF: MGGT 302300Z 0100/0124 18006KT 6000 BKN016 TX26/0120Z TN16/0112Z PROB30 TEMPO 0100/0105 20012KT VCTSRA FEW025CB PROB40 TEMPO 0108/0118 VRB03KT 5000 BR RADZ BKN014 BECMG 0115/0117 36006KT 8000 SCT018 BKN090 TEMPO 0118/0124 VCTSRA SCT020TCU FEW025CB

4,000以上の空港の気象観測と天気予報(METAR報とTAF報)

利用可能な観測所は地図上に黄色い丸と赤い丸で示す。

丸の上にカーソルを重ねると観測所名を参照できる。

次にクリックすると気象観測と天気予報を参照できる。

マップの切り替え:黒色「×」印の緑ボタンをクリックして拡大、「-」印の緑ボタンをクリックして縮小、緑色の三角印をクリックして隣りの地図に切り替え


METAR-TAF: